Time;durP1;ratioP1;P1;durP2;ratioP2;P2;SDS_P1;SDS_P2;PMS_P1;PMS_P2;Temp;Humidity;BMP_temperature;BMP_pressure;BME280_temperature;BME280_humidity;BME280_pressure;Samples;Min_cycle;Max_cycle;Signal;HPM_P1;HPM_P2
2023/05/23 00:01:57;;;;;;;0.10;0.10;;;;;;;16.76;nan;100351.50;4976221;28;20042;-85
2023/05/23 00:04:25;;;;;;;0.10;0.10;;;;;;;16.79;nan;100357.50;4979064;28;20022;-85
2023/05/23 00:06:52;;;;;;;0.10;0.10;;;;;;;16.81;nan;100360.81;4987516;28;20042;-85
2023/05/23 00:09:17;;;;;;;0.10;0.10;;;;;;;16.79;nan;100360.16;4988352;28;20044;-85
2023/05/23 00:11:46;;;;;;;0.10;0.10;;;;;;;16.80;nan;100357.28;4982342;28;20037;-85
2023/05/23 00:14:13;;;;;;;0.10;0.10;;;;;;;16.78;nan;100362.00;4968300;28;20041;-86
2023/05/23 00:16:43;;;;;;;0.10;0.10;;;;;;;16.77;nan;100354.97;4979317;28;20031;-86
2023/05/23 00:19:09;;;;;;;0.10;0.10;;;;;;;16.74;nan;100361.53;4968458;28;20031;-85
2023/05/23 00:21:34;;;;;;;0.10;0.10;;;;;;;16.67;nan;100363.34;4968510;28;20074;-85
2023/05/23 00:24:01;;;;;;;0.10;0.10;;;;;;;16.63;nan;100363.94;4968212;28;20063;-85
2023/05/23 00:26:28;;;;;;;0.10;0.10;;;;;;;16.58;nan;100367.19;4974876;28;20043;-85
2023/05/23 00:28:55;;;;;;;0.10;0.10;;;;;;;16.57;nan;100362.88;4984215;28;20125;-85
2023/05/23 00:31:21;;;;;;;0.10;0.10;;;;;;;16.54;nan;100361.44;4985309;28;20039;-85
2023/05/23 00:33:46;;;;;;;0.10;0.10;;;;;;;16.52;nan;100359.97;4977086;28;20034;-85
2023/05/23 00:36:12;;;;;;;0.10;0.10;;;;;;;16.47;nan;100351.69;4970745;28;20356;-85
2023/05/23 00:38:38;;;;;;;0.10;0.10;;;;;;;16.42;nan;100357.66;4988988;28;20042;-85
2023/05/23 00:41:03;;;;;;;0.10;0.10;;;;;;;16.38;nan;100359.03;4986862;28;20125;-85
2023/05/23 00:43:29;;;;;;;0.10;0.10;;;;;;;16.34;nan;100347.91;4984486;28;20470;-86
2023/05/23 00:45:54;;;;;;;0.10;0.10;;;;;;;16.33;nan;100350.81;4985455;28;20050;-85
2023/05/23 00:48:20;;;;;;;0.10;0.10;;;;;;;16.31;nan;100352.84;4986870;28;20058;-85
2023/05/23 00:50:45;;;;;;;0.10;0.10;;;;;;;16.27;nan;100363.06;4989053;28;20049;-85
2023/05/23 00:53:12;;;;;;;0.10;0.10;;;;;;;16.25;nan;100362.41;4987092;28;20035;-85
2023/05/23 00:55:38;;;;;;;0.10;0.10;;;;;;;16.24;nan;100370.63;5055412;28;20035;-86
2023/05/23 00:58:04;;;;;;;0.10;0.10;;;;;;;16.22;nan;100357.47;4980219;28;20579;-85
2023/05/23 01:00:31;;;;;;;0.10;0.10;;;;;;;16.20;nan;100359.50;4985868;28;20042;-86
2023/05/23 01:02:56;;;;;;;0.10;0.10;;;;;;;16.18;nan;100366.88;4982223;28;20492;-85
2023/05/23 01:05:23;;;;;;;0.10;0.10;;;;;;;16.14;nan;100365.63;4971285;28;20047;-84
2023/05/23 01:07:50;;;;;;;0.10;0.10;;;;;;;16.11;nan;100363.31;4980532;28;20117;-84
2023/05/23 01:10:19;;;;;;;0.10;0.10;;;;;;;16.08;nan;100371.72;4987738;28;20043;-85
2023/05/23 01:13:01;;;;;;;0.10;0.10;;;;;;;16.03;nan;100369.63;4986759;28;20045;-85
2023/05/23 01:16:00;;;;;;;0.10;0.10;;;;;;;16.00;nan;100374.53;4969170;28;20125;-85
2023/05/23 01:18:32;;;;;;;0.10;0.10;;;;;;;15.93;nan;100375.28;4984330;28;20043;-85
2023/05/23 01:21:17;;;;;;;0.10;0.10;;;;;;;15.95;nan;100376.94;4987534;28;20038;-84
2023/05/23 01:23:48;;;;;;;0.10;0.10;;;;;;;15.95;nan;100371.63;4992839;28;20106;-84
2023/05/23 01:26:25;;;;;;;;;;;;;;;15.92;nan;100368.31;4992627;28;20037;-84
2023/05/23 01:28:55;;;;;;;0.10;0.10;;;;;;;15.90;nan;100369.50;5009894;28;19956;-84
2023/05/23 01:31:23;;;;;;;0.10;0.10;;;;;;;15.85;nan;100370.09;4994639;28;20577;-84
2023/05/23 01:33:52;;;;;;;0.10;0.10;;;;;;;15.83;nan;100371.28;4994921;28;20034;-85
2023/05/23 01:36:18;;;;;;;0.10;0.10;;;;;;;15.81;nan;100378.66;4990460;28;20054;-85
2023/05/23 01:38:43;;;;;;;0.10;0.10;;;;;;;15.79;nan;100378.81;4978237;28;20121;-86
2023/05/23 01:41:08;;;;;;;0.10;0.10;;;;;;;15.78;nan;100385.19;4970887;28;20027;-85
2023/05/23 01:43:34;;;;;;;0.10;0.10;;;;;;;15.78;nan;100384.34;4985508;28;20045;-85
2023/05/23 01:46:00;;;;;;;0.10;0.10;;;;;;;15.76;nan;100389.06;4988606;28;20392;-85
2023/05/23 01:48:26;;;;;;;0.10;0.10;;;;;;;15.73;nan;100384.09;4983519;28;20045;-84
2023/05/23 01:50:53;;;;;;;0.10;0.10;;;;;;;15.71;nan;100392.28;4991091;28;20049;-86
2023/05/23 01:53:23;;;;;;;0.10;0.10;;;;;;;15.67;nan;100391.78;4983769;28;20041;-85
2023/05/23 01:55:49;;;;;;;0.10;0.10;;;;;;;15.62;nan;100398.72;4987923;28;20087;-86
2023/05/23 01:58:15;;;;;;;0.10;0.10;;;;;;;15.58;nan;100395.59;4990890;28;20121;-84
2023/05/23 02:00:40;;;;;;;0.10;0.10;;;;;;;15.57;nan;100393.13;4988333;28;20054;-85
2023/05/23 02:03:06;;;;;;;0.10;0.10;;;;;;;15.59;nan;100391.06;4984367;28;20042;-86
2023/05/23 02:05:31;;;;;;;0.10;0.10;;;;;;;15.61;nan;100392.56;4972984;28;21531;-85
2023/05/23 02:07:56;;;;;;;0.10;0.10;;;;;;;15.63;nan;100389.69;4998602;28;20042;-85
2023/05/23 02:10:22;;;;;;;0.10;0.10;;;;;;;15.63;nan;100397.69;4983915;28;20569;-84
2023/05/23 02:12:47;;;;;;;0.10;0.10;;;;;;;15.59;nan;100394.59;5018753;28;20512;-84
2023/05/23 02:15:12;;;;;;;0.10;0.10;;;;;;;15.57;nan;100403.78;4989271;28;20063;-85
2023/05/23 02:17:38;;;;;;;0.10;0.10;;;;;;;15.54;nan;100394.31;4982701;28;20034;-86
2023/05/23 02:20:05;;;;;;;0.10;0.10;;;;;;;15.59;nan;100407.91;4986939;28;20088;-84
2023/05/23 02:22:30;;;;;;;0.10;0.10;;;;;;;15.69;nan;100404.94;4990744;28;20835;-85
2023/05/23 02:24:56;;;;;;;0.10;0.10;;;;;;;15.79;nan;100402.00;4993245;28;20039;-85
2023/05/23 02:27:22;;;;;;;0.10;0.10;;;;;;;15.89;nan;100405.19;4986678;28;20042;-85
2023/05/23 02:29:47;;;;;;;0.10;0.10;;;;;;;15.96;nan;100408.75;4990027;28;20027;-85
2023/05/23 02:32:12;;;;;;;0.10;0.10;;;;;;;16.02;nan;100417.84;5009747;28;20099;-86
2023/05/23 02:34:39;;;;;;;0.10;0.10;;;;;;;16.05;nan;100417.44;4985569;28;20270;-84
2023/05/23 02:37:04;;;;;;;0.10;0.10;;;;;;;16.05;nan;100418.28;5002819;28;20050;-85
2023/05/23 02:39:29;;;;;;;0.10;0.10;;;;;;;16.05;nan;100418.28;4987061;28;20111;-86
2023/05/23 02:41:55;;;;;;;0.10;0.10;;;;;;;16.07;nan;100423.44;4975574;28;20050;-84
2023/05/23 02:44:20;;;;;;;0.10;0.10;;;;;;;16.08;nan;100422.41;4987125;28;20087;-85
2023/05/23 02:46:45;;;;;;;0.10;0.10;;;;;;;16.16;nan;100426.78;4977908;28;20084;-86
2023/05/23 02:49:11;;;;;;;0.10;0.10;;;;;;;16.22;nan;100426.03;4980726;28;20098;-85
2023/05/23 02:51:36;;;;;;;0.10;0.10;;;;;;;16.27;nan;100436.94;4995994;28;20289;-85
2023/05/23 02:54:01;;;;;;;0.10;0.10;;;;;;;16.33;nan;100441.53;4986237;28;20109;-85
2023/05/23 02:56:27;;;;;;;0.10;0.10;;;;;;;16.42;nan;100437.72;4985179;28;20060;-85
2023/05/23 02:58:52;;;;;;;0.10;0.10;;;;;;;16.44;nan;100430.31;4985019;28;20034;-86
2023/05/23 03:01:18;;;;;;;0.10;0.10;;;;;;;16.46;nan;100428.28;4985864;28;20049;-84
2023/05/23 03:03:43;;;;;;;0.10;0.10;;;;;;;16.49;nan;100435.94;4993236;28;20143;-87
2023/05/23 03:06:13;;;;;;;0.10;0.10;;;;;;;16.54;nan;100440.66;4983122;28;20043;-86
2023/05/23 03:08:38;;;;;;;0.10;0.10;;;;;;;16.59;nan;100440.06;4985866;28;20500;-85
2023/05/23 03:11:04;;;;;;;0.10;0.10;;;;;;;16.61;nan;100438.88;4991225;28;20053;-85
2023/05/23 03:13:29;;;;;;;0.10;0.10;;;;;;;16.63;nan;100434.16;5014758;28;20059;-85
2023/05/23 03:15:54;;;;;;;0.10;0.10;;;;;;;16.65;nan;100442.81;5067942;28;20028;-86
2023/05/23 03:18:20;;;;;;;0.10;0.10;;;;;;;16.67;nan;100442.63;5068768;28;20271;-85
2023/05/23 03:20:45;;;;;;;0.10;0.10;;;;;;;16.72;nan;100445.53;5044945;28;20269;-85
2023/05/23 03:23:10;;;;;;;0.10;0.10;;;;;;;16.74;nan;100444.31;4977470;28;20346;-85
2023/05/23 03:25:35;;;;;;;0.10;0.10;;;;;;;16.72;nan;100438.34;5070750;28;20035;-85
2023/05/23 03:28:01;;;;;;;0.10;0.10;;;;;;;16.73;nan;100445.34;4978753;28;20115;-85
2023/05/23 03:30:26;;;;;;;0.10;0.10;;;;;;;16.74;nan;100444.31;4988176;28;20099;-85
2023/05/23 03:32:52;;;;;;;0.10;0.10;;;;;;;16.73;nan;100440.00;4981958;28;20070;-85
2023/05/23 03:35:21;;;;;;;0.10;0.10;;;;;;;16.72;nan;100442.88;4991845;28;20046;-85
2023/05/23 03:37:46;;;;;;;0.10;0.10;;;;;;;16.73;nan;100445.34;4998967;28;20038;-85
2023/05/23 03:40:11;;;;;;;0.10;0.10;;;;;;;16.75;nan;100451.28;4990891;28;20048;-85
2023/05/23 03:42:40;;;;;;;0.10;0.10;;;;;;;16.74;nan;100454.19;4990762;28;20038;-86
2023/05/23 03:45:05;;;;;;;0.10;0.10;;;;;;;16.73;nan;100453.38;4983589;28;20522;-86
2023/05/23 03:47:31;;;;;;;0.10;0.10;;;;;;;16.70;nan;100452.91;4982116;28;20038;-86
2023/05/23 03:49:56;;;;;;;0.10;0.10;;;;;;;16.61;nan;100452.22;4990275;28;20039;-86
2023/05/23 03:52:22;;;;;;;0.10;0.10;;;;;;;16.48;nan;100457.47;4984830;28;20389;-86
2023/05/23 03:54:47;;;;;;;0.10;0.10;;;;;;;16.39;nan;100459.44;4983303;28;20046;-86
2023/05/23 03:57:12;;;;;;;0.10;0.10;;;;;;;16.32;nan;100459.34;4984822;28;20573;-86
2023/05/23 03:59:38;;;;;;;0.10;0.10;;;;;;;16.29;nan;100461.59;4982679;28;20034;-86
2023/05/23 04:02:03;;;;;;;0.10;0.10;;;;;;;16.28;nan;100462.59;4984419;28;20099;-85
2023/05/23 04:04:29;;;;;;;0.10;0.10;;;;;;;16.26;nan;100460.13;5000148;28;20051;-85
2023/05/23 04:06:54;;;;;;;0.10;0.10;;;;;;;16.23;nan;100462.34;4984682;28;20045;-85
2023/05/23 04:09:20;;;;;;;0.10;0.10;;;;;;;16.20;nan;100463.56;4987023;28;20110;-85
2023/05/23 04:11:46;;;;;;;0.10;0.10;;;;;;;16.18;nan;100465.59;4980604;28;20039;-86
2023/05/23 04:14:12;;;;;;;0.10;0.10;;;;;;;16.11;nan;100465.53;4977852;28;20032;-86
2023/05/23 04:16:40;;;;;;;0.10;0.10;;;;;;;16.08;nan;100470.41;4986386;28;20034;-86
2023/05/23 04:19:06;;;;;;;0.10;0.10;;;;;;;16.04;nan;100472.66;5036315;28;20046;-86
2023/05/23 04:21:32;;;;;;;0.10;0.10;;;;;;;16.00;nan;100479.38;4989427;28;20026;-86
2023/05/23 04:23:57;;;;;;;0.10;0.10;;;;;;;16.00;nan;100478.53;4979224;28;20043;-86
2023/05/23 04:26:23;;;;;;;0.10;0.10;;;;;;;15.97;nan;100479.75;4982096;28;20084;-86
2023/05/23 04:28:49;;;;;;;0.10;0.10;;;;;;;15.95;nan;100487.09;5012979;28;20035;-86
2023/05/23 04:31:14;;;;;;;0.10;0.10;;;;;;;15.90;nan;100490.34;4987989;28;20113;-86
2023/05/23 04:33:40;;;;;;;0.10;0.10;;;;;;;15.90;nan;100489.50;4977258;28;20134;-86
2023/05/23 04:36:08;;;;;;;0.10;0.10;;;;;;;15.84;nan;100491.06;4986984;28;20030;-86
2023/05/23 04:38:34;;;;;;;0.10;0.10;;;;;;;15.85;nan;100490.06;4995150;28;20034;-86
2023/05/23 04:40:59;;;;;;;0.10;0.10;;;;;;;15.80;nan;100495.16;4986651;28;20037;-86
2023/05/23 04:43:26;;;;;;;0.10;0.10;;;;;;;15.76;nan;100499.19;4978746;28;20026;-86
2023/05/23 04:45:53;;;;;;;0.10;0.10;;;;;;;15.73;nan;100501.38;4986368;28;20123;-85
2023/05/23 04:48:20;;;;;;;0.10;0.10;;;;;;;15.70;nan;100511.41;4990509;28;20037;-86
2023/05/23 04:50:46;;;;;;;0.10;0.10;;;;;;;15.67;nan;100505.59;5002853;28;20033;-86
2023/05/23 04:53:12;;;;;;;0.10;0.10;;;;;;;15.64;nan;100504.13;4983343;28;20027;-85
2023/05/23 04:55:37;;;;;;;0.10;0.10;;;;;;;15.62;nan;100510.66;4981176;28;20041;-85
2023/05/23 04:58:02;;;;;;;0.20;0.20;;;;;;;15.58;nan;100512.03;4978270;28;20050;-85
2023/05/23 05:00:29;;;;;;;0.10;0.10;;;;;;;15.46;nan;100517.81;5000442;28;20083;-85
2023/05/23 05:02:54;;;;;;;0.10;0.10;;;;;;;15.44;nan;100517.19;4988704;28;20041;-86
2023/05/23 05:05:20;;;;;;;0.10;0.10;;;;;;;15.37;nan;100521.59;4984903;28;20273;-85
2023/05/23 05:07:45;;;;;;;0.10;0.10;;;;;;;15.37;nan;100526.09;5003151;28;20031;-85
2023/05/23 05:10:15;;;;;;;0.10;0.10;;;;;;;15.50;nan;100521.78;4989832;28;20462;-85
2023/05/23 05:12:45;;;;;;;0.10;0.10;;;;;;;15.54;nan;100519.59;4987365;28;20115;-84
2023/05/23 05:15:12;;;;;;;0.10;0.10;;;;;;;15.56;nan;100514.06;4977320;28;20060;-85
2023/05/23 05:17:38;;;;;;;0.10;0.10;;;;;;;15.57;nan;100529.88;4975246;28;20046;-84
2023/05/23 05:20:07;;;;;;;0.10;0.10;;;;;;;15.58;nan;100531.50;4980926;28;20038;-85
2023/05/23 05:22:42;;;;;;;0.10;0.10;;;;;;;15.46;nan;100536.47;4978783;28;20105;-84
2023/05/23 05:25:09;;;;;;;0.10;0.10;;;;;;;15.55;nan;100542.56;4991853;28;20614;-84
2023/05/23 05:27:38;;;;;;;0.10;0.10;;;;;;;15.57;nan;100545.88;4989130;28;20034;-84
2023/05/23 05:30:07;;;;;;;0.10;0.10;;;;;;;15.68;nan;100550.75;4985320;28;20030;-86
2023/05/23 05:32:33;;;;;;;0.10;0.10;;;;;;;15.79;nan;100546.78;4988504;28;20058;-83
2023/05/23 05:35:02;;;;;;;0.10;0.10;;;;;;;15.93;nan;100551.28;4993246;28;20037;-85
2023/05/23 05:37:27;;;;;;;0.10;0.10;;;;;;;16.10;nan;100545.75;4972262;28;20058;-85
2023/05/23 05:39:53;;;;;;;0.10;0.10;;;;;;;16.21;nan;100552.41;4968123;28;20446;-85
2023/05/23 05:42:20;;;;;;;0.10;0.10;;;;;;;16.33;nan;100543.75;4977929;28;20034;-86
2023/05/23 05:44:48;;;;;;;0.10;0.10;;;;;;;16.37;nan;100560.19;4991912;28;20042;-85
2023/05/23 05:47:14;;;;;;;0.10;0.10;;;;;;;16.28;nan;100561.31;4986411;28;20657;-85
2023/05/23 05:49:40;;;;;;;0.10;0.10;;;;;;;16.23;nan;100566.41;4988497;28;20087;-85
2023/05/23 05:52:06;;;;;;;0.10;0.10;;;;;;;16.26;nan;100572.19;4977591;28;20516;-85
2023/05/23 05:54:31;;;;;;;0.10;0.10;;;;;;;16.49;nan;100576.53;4976463;28;20045;-85
2023/05/23 05:56:56;;;;;;;0.10;0.10;;;;;;;16.61;nan;100577.69;4982158;28;20503;-85
2023/05/23 05:59:22;;;;;;;0.10;0.10;;;;;;;16.78;nan;100572.94;4986962;28;20114;-85
2023/05/23 06:01:49;;;;;;;0.10;0.10;;;;;;;17.18;nan;100583.97;4980961;28;20038;-86
2023/05/23 06:04:15;;;;;;;0.10;0.10;;;;;;;17.31;nan;100585.94;4985961;28;20030;-86
2023/05/23 06:06:40;;;;;;;0.10;0.10;;;;;;;17.55;nan;100590.84;4981891;28;20031;-86
2023/05/23 06:09:06;;;;;;;0.10;0.10;;;;;;;17.61;nan;100589.22;4986671;28;20080;-86
2023/05/23 06:11:31;;;;;;;0.10;0.10;;;;;;;17.74;nan;100597.34;4976925;28;20051;-87
2023/05/23 06:13:56;;;;;;;0.10;0.10;;;;;;;17.74;nan;100594.66;4984737;28;20041;-84
2023/05/23 06:16:22;;;;;;;0.10;0.10;;;;;;;17.61;nan;100595.41;4981861;28;20693;-84
2023/05/23 06:18:47;;;;;;;0.10;0.10;;;;;;;17.67;nan;100598.31;5020265;28;20283;-83
2023/05/23 06:21:12;;;;;;;0.10;0.10;;;;;;;17.64;nan;100599.53;4985703;28;20030;-83
2023/05/23 06:23:37;;;;;;;0.10;0.10;;;;;;;17.41;nan;100599.78;4971317;28;20087;-84
2023/05/23 06:26:06;;;;;;;0.10;0.10;;;;;;;17.36;nan;100602.22;4978928;28;20046;-84
2023/05/23 06:28:32;;;;;;;0.10;0.10;;;;;;;17.23;nan;100602.94;4986537;28;20284;-84
2023/05/23 06:30:57;;;;;;;0.10;0.10;;;;;;;17.06;nan;100601.56;5003944;28;20034;-84
2023/05/23 06:33:22;;;;;;;0.10;0.10;;;;;;;16.97;nan;100604.38;4992463;28;20035;-84
2023/05/23 06:35:48;;;;;;;0.10;0.10;;;;;;;17.00;nan;100608.50;4989570;28;20282;-86
2023/05/23 06:38:13;;;;;;;0.10;0.10;;;;;;;17.04;nan;100609.78;4998923;28;20042;-84
2023/05/23 06:40:38;;;;;;;0.10;0.10;;;;;;;17.20;nan;100617.50;5018697;28;20038;-84
2023/05/23 06:43:03;;;;;;;0.10;0.10;;;;;;;17.11;nan;100613.34;5009244;28;20038;-84
2023/05/23 06:45:29;;;;;;;0.10;0.10;;;;;;;17.18;nan;100616.91;4995013;28;20075;-86
2023/05/23 06:47:54;;;;;;;0.10;0.10;;;;;;;17.17;nan;100615.22;4993995;28;20049;-85
2023/05/23 06:50:19;;;;;;;0.10;0.10;;;;;;;17.25;nan;100624.94;5006915;28;20294;-84
2023/05/23 06:52:45;;;;;;;0.10;0.10;;;;;;;17.20;nan;100628.19;4997696;28;20031;-84
2023/05/23 06:55:14;;;;;;;0.10;0.10;;;;;;;17.18;nan;100626.75;4983772;28;20665;-84
2023/05/23 06:57:39;;;;;;;0.10;0.10;;;;;;;17.43;nan;100637.03;4980717;28;20408;-84
2023/05/23 07:00:05;;;;;;;0.10;0.10;;;;;;;17.45;nan;100634.97;4978894;28;20035;-83
2023/05/23 07:02:31;;;;;;;0.10;0.10;;;;;;;17.43;nan;100637.03;4984983;28;20034;-83
2023/05/23 07:04:56;;;;;;;0.10;0.10;;;;;;;17.37;nan;100630.59;4993029;28;20062;-84
2023/05/23 07:07:21;;;;;;;0.10;0.10;;;;;;;17.32;nan;100641.03;4992382;28;20051;-83
2023/05/23 07:09:46;;;;;;;0.10;0.10;;;;;;;17.25;nan;100637.50;4983060;28;20829;-87
2023/05/23 07:12:12;;;;;;;0.10;0.10;;;;;;;17.18;nan;100642.78;4977821;28;20035;-84
2023/05/23 07:14:37;;;;;;;0.10;0.10;;;;;;;17.16;nan;100640.31;4985591;28;20038;-86
2023/05/23 07:17:02;;;;;;;0.10;0.10;;;;;;;17.16;nan;100650.16;4979577;28;20807;-86
2023/05/23 07:19:27;;;;;;;0.10;0.10;;;;;;;17.14;nan;100647.69;4998365;28;20034;-85
2023/05/23 07:21:53;;;;;;;0.10;0.10;;;;;;;17.10;nan;100641.06;4985154;28;20549;-83
2023/05/23 07:24:18;;;;;;;0.10;0.10;;;;;;;17.12;nan;100648.91;4986890;28;20038;-83
2023/05/23 07:26:43;;;;;;;0.10;0.10;;;;;;;17.04;nan;100654.34;4980266;28;20359;-85
2023/05/23 07:29:09;;;;;;;0.10;0.10;;;;;;;17.03;nan;100647.38;4982325;28;20283;-83
2023/05/23 07:31:34;;;;;;;0.10;0.10;;;;;;;17.15;nan;100652.00;4981437;28;20038;-86
2023/05/23 07:33:59;;;;;;;0.10;0.10;;;;;;;17.20;nan;100654.09;4998581;28;20042;-86
2023/05/23 07:36:25;;;;;;;0.10;0.10;;;;;;;17.28;nan;100651.31;4979348;28;20492;-85
2023/05/23 07:38:52;;;;;;;0.10;0.10;;;;;;;17.35;nan;100652.19;4971635;28;20046;-85
2023/05/23 07:41:17;;;;;;;0.10;0.10;;;;;;;17.41;nan;100655.94;4976723;28;20054;-85
2023/05/23 07:43:42;;;;;;;0.10;0.10;;;;;;;17.32;nan;100655.22;4982175;28;20239;-87
2023/05/23 07:46:07;;;;;;;0.10;0.10;;;;;;;17.36;nan;100650.34;4977953;28;20030;-88
2023/05/23 07:48:33;;;;;;;0.10;0.10;;;;;;;17.47;nan;100652.50;4979190;28;20305;-88
2023/05/23 07:50:58;;;;;;;0.10;0.10;;;;;;;17.77;nan;100660.31;5008842;28;20807;-87
2023/05/23 07:53:23;;;;;;;0.10;0.10;;;;;;;17.99;nan;100651.19;4974188;28;20298;-87
2023/05/23 07:55:48;;;;;;;0.10;0.10;;;;;;;18.10;nan;100647.16;4984603;28;20290;-87
2023/05/23 07:58:14;;;;;;;0.10;0.10;;;;;;;18.27;nan;100654.84;4986670;28;20309;-87
2023/05/23 08:00:40;;;;;;;0.10;0.10;;;;;;;18.34;nan;100653.03;4982703;28;20236;-87
2023/05/23 08:03:05;;;;;;;0.10;0.10;;;;;;;18.33;nan;100652.22;4989469;28;20038;-88
2023/05/23 08:05:30;;;;;;;0.10;0.10;;;;;;;18.20;nan;100644.94;4985625;28;20035;-87
2023/05/23 08:07:56;;;;;;;0.10;0.10;;;;;;;18.00;nan;100644.03;4976990;28;20407;-85
2023/05/23 08:10:21;;;;;;;0.10;0.10;;;;;;;18.14;nan;100658.28;4991275;28;20422;-85
2023/05/23 08:12:46;;;;;;;0.10;0.10;;;;;;;18.29;nan;100661.66;4981082;28;20305;-88
2023/05/23 08:15:11;;;;;;;0.10;0.10;;;;;;;18.61;nan;100659.28;4979944;28;20076;-85
2023/05/23 08:17:37;;;;;;;0.10;0.10;;;;;;;18.66;nan;100656.84;4983375;28;20301;-87
2023/05/23 08:20:03;;;;;;;0.10;0.10;;;;;;;18.84;nan;100659.81;4981846;28;20042;-88
2023/05/23 08:22:29;;;;;;;0.10;0.10;;;;;;;19.13;nan;100656.97;4979394;28;20063;-87
2023/05/23 08:24:54;;;;;;;0.10;0.10;;;;;;;19.41;nan;100659.47;4984877;28;20092;-85
2023/05/23 08:27:20;;;;;;;0.10;0.10;;;;;;;19.63;nan;100660.88;4977797;28;20050;-85
2023/05/23 08:29:45;;;;;;;0.10;0.10;;;;;;;19.50;nan;100653.66;4986100;28;20038;-85
2023/05/23 08:32:10;;;;;;;0.10;0.10;;;;;;;19.27;nan;100651.41;4985434;28;20392;-85
2023/05/23 08:34:35;;;;;;;0.00;0.00;;;;;;;19.28;nan;100654.91;5001123;28;20121;-85
2023/05/23 08:37:01;;;;;;;0.10;0.10;;;;;;;19.51;nan;100660.66;4990027;28;20034;-85
2023/05/23 08:39:26;;;;;;;0.10;0.10;;;;;;;19.67;nan;100656.75;4979806;28;20042;-86
2023/05/23 08:41:52;;;;;;;0.07;0.07;;;;;;;19.69;nan;100664.63;4974528;28;20689;-85
2023/05/23 08:44:17;;;;;;;0.10;0.10;;;;;;;19.60;nan;100668.53;4980826;28;20313;-85
2023/05/23 08:46:45;;;;;;;0.10;0.10;;;;;;;19.81;nan;100667.50;4983761;28;20514;-85
2023/05/23 08:49:13;;;;;;;0.10;0.10;;;;;;;19.99;nan;100667.66;5000898;28;20063;-85
2023/05/23 08:51:41;;;;;;;0.10;0.10;;;;;;;20.95;nan;100666.84;4991984;28;20031;-85
2023/05/23 08:54:08;;;;;;;0.10;0.10;;;;;;;22.18;nan;100664.53;4988425;28;20041;-86
2023/05/23 08:56:34;;;;;;;0.08;0.00;;;;;;;23.35;nan;100660.66;4976952;28;20434;-85
2023/05/23 08:58:59;;;;;;;0.00;0.00;;;;;;;23.86;nan;100660.00;4972794;28;20035;-86
2023/05/23 09:01:25;;;;;;;0.00;0.00;;;;;;;23.76;nan;100661.66;5001081;28;20031;-85
2023/05/23 09:03:50;;;;;;;0.10;0.10;;;;;;;24.44;nan;100668.22;4981126;28;20491;-86
2023/05/23 09:06:20;;;;;;;0.00;0.00;;;;;;;25.34;nan;100672.06;4972827;28;20099;-86
2023/05/23 09:08:45;;;;;;;0.00;0.00;;;;;;;25.61;nan;100669.47;4977514;28;20052;-86
2023/05/23 09:11:12;;;;;;;0.00;0.00;;;;;;;26.54;nan;100682.41;4988940;28;20451;-87
2023/05/23 09:13:39;;;;;;;0.00;0.00;;;;;;;26.20;nan;100668.97;4981489;28;20046;-85
2023/05/23 09:16:06;;;;;;;0.00;0.00;;;;;;;26.48;nan;100671.47;4983628;28;20041;-86
2023/05/23 09:18:42;;;;;;;0.00;0.00;;;;;;;26.12;nan;100664.78;4974868;28;20041;-86
2023/05/23 09:21:09;;;;;;;0.00;0.00;;;;;;;26.23;nan;100671.16;4985431;28;20113;-86
2023/05/23 09:23:36;;;;;;;0.00;0.00;;;;;;;26.23;nan;100673.88;4985338;28;20049;-85
2023/05/23 09:26:07;;;;;;;0.00;0.00;;;;;;;24.98;nan;100666.03;4974687;28;20045;-89
2023/05/23 09:28:33;;;;;;;0.00;0.00;;;;;;;24.11;nan;100667.00;4978262;28;20043;-86
2023/05/23 09:31:03;;;;;;;0.00;0.00;;;;;;;23.40;nan;100663.50;5018235;28;20446;-86
2023/05/23 09:33:33;;;;;;;0.00;0.00;;;;;;;23.38;nan;100669.09;4983423;28;20046;-86
2023/05/23 09:35:59;;;;;;;0.00;0.00;;;;;;;23.43;nan;100666.56;4981437;28;20024;-85
2023/05/23 09:38:25;;;;;;;0.00;0.00;;;;;;;23.77;nan;100682.22;4982223;28;20092;-85
2023/05/23 09:40:54;;;;;;;0.00;0.00;;;;;;;24.39;nan;100671.63;4985479;28;20045;-86
2023/05/23 09:43:20;;;;;;;0.00;0.00;;;;;;;25.32;nan;100671.47;4980580;28;20030;-85
2023/05/23 09:45:46;;;;;;;0.00;0.00;;;;;;;26.60;nan;100671.38;4976293;28;20109;-85
2023/05/23 09:48:12;;;;;;;0.00;0.00;;;;;;;27.06;nan;100677.22;4975936;28;20044;-85
2023/05/23 09:50:38;;;;;;;0.00;0.00;;;;;;;26.46;nan;100675.50;4976727;28;20054;-86
2023/05/23 09:53:06;;;;;;;0.00;0.00;;;;;;;26.16;nan;100673.25;4974666;28;20182;-86
2023/05/23 09:55:31;;;;;;;0.00;0.00;;;;;;;25.68;nan;100670.13;4984488;28;20399;-86
2023/05/23 09:57:58;;;;;;;0.00;0.00;;;;;;;25.90;nan;100674.81;4973508;28;20118;-85
2023/05/23 10:00:24;;;;;;;0.00;0.00;;;;;;;25.27;nan;100668.69;4985804;28;20031;-84
2023/05/23 10:03:12;;;;;;;0.00;0.00;;;;;;;24.86;nan;100671.50;4973463;28;20045;-84
2023/05/23 10:05:46;;;;;;;0.00;0.00;;;;;;;23.70;nan;100671.50;4979850;28;20038;-84
2023/05/23 10:08:21;;;;;;;0.00;0.00;;;;;;;23.26;nan;100677.22;4978788;28;20436;-85
2023/05/23 10:10:55;;;;;;;0.00;0.00;;;;;;;22.52;nan;100681.97;4976857;28;20436;-84
2023/05/23 10:13:24;;;;;;;0.00;0.00;;;;;;;22.34;nan;100682.00;4992030;28;20042;-84
2023/05/23 10:15:54;;;;;;;0.00;0.00;;;;;;;22.04;nan;100682.69;4976410;28;20117;-85
2023/05/23 10:18:27;;;;;;;0.00;0.00;;;;;;;22.04;nan;100685.41;4984304;28;20035;-84
2023/05/23 10:20:55;;;;;;;0.00;0.00;;;;;;;21.60;nan;100685.41;4984559;28;20117;-85
2023/05/23 10:23:21;;;;;;;0.00;0.00;;;;;;;21.48;nan;100676.41;4983738;28;20034;-85
2023/05/23 10:25:47;;;;;;;0.00;0.00;;;;;;;21.64;nan;100683.09;4970934;28;20141;-85
2023/05/23 10:28:13;;;;;;;0.00;0.00;;;;;;;21.58;nan;100682.13;4973559;28;20054;-85
2023/05/23 10:30:39;;;;;;;0.00;0.00;;;;;;;21.55;nan;100681.75;4971415;28;20031;-85
2023/05/23 10:33:06;;;;;;;0.03;0.03;;;;;;;21.92;nan;100689.88;4970118;28;20057;-85
2023/05/23 10:35:57;;;;;;;0.00;0.00;;;;;;;22.49;nan;100693.19;4976221;28;20425;-85
2023/05/23 10:38:35;;;;;;;0.00;0.00;;;;;;;22.73;nan;100686.03;4977843;28;20049;-85
2023/05/23 10:41:11;;;;;;;0.00;0.00;;;;;;;22.26;nan;100692.03;4998894;28;20260;-85
2023/05/23 10:43:46;;;;;;;0.00;0.00;;;;;;;22.34;nan;100693.59;4984500;28;20034;-85
2023/05/23 10:46:13;;;;;;;0.00;0.00;;;;;;;22.35;nan;100689.03;4983986;28;20121;-86
2023/05/23 10:48:43;;;;;;;0.00;0.00;;;;;;;22.53;nan;100688.19;5008417;28;20039;-85
2023/05/23 10:51:09;;;;;;;0.00;0.00;;;;;;;22.41;nan;100693.53;4986437;28;20173;-85
2023/05/23 10:53:37;;;;;;;0.00;0.00;;;;;;;22.17;nan;100695.22;4974518;28;20095;-85
2023/05/23 10:56:06;;;;;;;0.00;0.00;;;;;;;21.87;nan;100689.72;4981600;28;20041;-86
2023/05/23 10:58:32;;;;;;;0.00;0.00;;;;;;;21.80;nan;100693.28;4982099;28;20057;-85
2023/05/23 11:01:06;;;;;;;0.10;0.10;;;;;;;21.36;nan;100689.72;4986786;28;20030;-85
2023/05/23 11:03:33;;;;;;;0.00;0.00;;;;;;;21.09;nan;100688.25;4984884;28;20088;-85
2023/05/23 11:05:59;;;;;;;0.00;0.00;;;;;;;20.93;nan;100690.44;4992932;28;20045;-84
2023/05/23 11:08:25;;;;;;;0.00;0.00;;;;;;;20.75;nan;100690.31;4979440;28;20041;-85
2023/05/23 11:10:51;;;;;;;0.00;0.00;;;;;;;20.60;nan;100689.81;4985751;28;20502;-84
2023/05/23 11:13:18;;;;;;;0.00;0.00;;;;;;;20.58;nan;100693.50;4981086;28;20441;-84
2023/05/23 11:15:44;;;;;;;0.10;0.10;;;;;;;20.66;nan;100695.13;4979811;28;20043;-85
2023/05/23 11:18:19;;;;;;;0.00;0.00;;;;;;;20.72;nan;100690.78;4979753;28;20035;-85
2023/05/23 11:20:46;;;;;;;0.10;0.10;;;;;;;20.75;nan;100690.31;4978667;28;20102;-84
2023/05/23 11:23:12;;;;;;;0.10;0.10;;;;;;;21.03;nan;100694.53;4983560;28;20571;-84
2023/05/23 11:25:42;;;;;;;0.00;0.00;;;;;;;21.11;nan;100696.94;4984549;28;20038;-84
2023/05/23 11:28:08;;;;;;;;;;;;;;;21.29;nan;100698.91;4980916;28;20112;-84
2023/05/23 11:30:38;;;;;;;0.08;0.08;;;;;;;21.34;nan;100691.81;4987462;28;20398;-84
2023/05/23 11:33:10;;;;;;;0.10;0.10;;;;;;;21.13;nan;100694.84;4979502;28;20042;-84
2023/05/23 11:35:36;;;;;;;0.00;0.00;;;;;;;21.48;nan;100697.13;4986615;28;20058;-84
2023/05/23 11:38:05;;;;;;;0.00;0.00;;;;;;;21.30;nan;100692.47;4975580;28;20069;-84
2023/05/23 11:40:35;;;;;;;0.00;0.00;;;;;;;21.47;nan;100690.09;4982346;28;20084;-84